Shymkent, Kazakhstan
Current Conditions -  °F | °C
As of 3:30 PM on Friday 24 Oct 2014 (Local Time) from UAII Reporting Station
Clear Clear  
Wind Chill: 64°   Ceiling: Unl
Heat Index: 64°   Visibility: 6mi
Dew Point: 50°   Wind: 4mph
Humidity: 59%   Direction: 360°N
Pressure: 30.03"   Gusts: NA
Location:  42.32°N, 69.59°E
Report Text: UAII 240930Z 36002MPS CAVOK 18/10 Q1017 R10/0///70 NOSIG RMKQFE727/0970
Loading
Personal Weather Stations






























Interactive Weather Map
Tropical Storm Tracking
New forecast layout! Learn more

10-Day Weather Forecast

Advertisements
Track Severe Weather on mobile